Sand Point, AK

1:21 PM AKDT on September 30, 2014 (GMT -0800)
Chignik | Change Station
CLOSE
Current Station
Airport
Location: Chignik,
Elevation: 16 ft
Nearby Weather Stations

Elev 16 ft 56.31 °N, 158.37 °W | Updated 25 minutes ago

Clear
Clear
50 °F
Feels Like 50 °F
N
0
Wind Variable Wind from North

Today
High -- | Low -- °F
--% Chance of Precip.
Yesterday
High -- | Low -- °F
Precip. -- in
8:43 AM 8:20 PM
Waxing Crescent, 40% visible
Pressure 30.25 in
Visibility 10.0 miles
Clouds Clear
Dew Point 36 °F
Humidity 58%
Rainfall 0.00 in
Snow Depth 2 in , 3 in , 2 in
UV 3 out of 12
Pollen Not available.
Air Quality Not available.
Flu Activity Not available.
METAR PAJC 302056Z AUTO 00000KT 10SM CLR 10/02 A3025 RMK AO1 57003

More Conditions Fewer Conditions

Pressure 30.25 in
Visibility 10.0 miles
Clouds Clear
Dew Point 36 °F
Humidity 58%
Rainfall 0.00 in
Snow Depth 2 in , 3 in , 2 in
UV 3 out of 12
Pollen Not available.
Air Quality Not available.
Flu Activity Not available.
METAR PAJC 302056Z AUTO 00000KT 10SM CLR 10/02 A3025 RMK AO1 57003

More Conditions Fewer Conditions

10-Day Weather Forecast

Almanac

Astronomy

Sep. 30, 2014 Rise Set
Actual Time 8:43 AM AKDT 8:20 PM AKDT
Civil Twilight 8:07 AM AKDT 8:56 PM AKDT
Nautical Twilight 7:24 AM AKDT 9:38 PM AKDT
Astronomical Twilight 6:40 AM AKDT 10:22 PM AKDT
Moon 3:49 PM AKDT No Moon Set
Length of Visible Light 12h 48m
Length of Day
11h 36m
Tomorrow will be 4m 30s shorter.
Waxing Crescent, 40% of the Moon is Illuminated
Today
Waxing Crescent
Oct 1
First Quarter
Oct 8
Full
Oct 15
Last Quarter
Oct 23
New

Today's Extremes

State Highs State Lows

Community

WunderPhotos

Upload Photos

1,757,755 photos uploaded!

Nearby

Snow Depth

Station Depth Elevation
Indian Pass 2 in 2300 ft
Munson Ridge 3 in 3100 ft
Coldfoot 3 in 1040 ft
Susitna Valley High 2 in 375 ft
Rocky Point 3 in 500 ft

Earthquake Activity

City Distance Mag. Time & Date
No recent earthquake activity has been reported nearby.
Minimum magnitude displayed is 2.5.

Coastal Water Temperatures

Place Temperature
No Stations Reporting

Nearby Weather Stations